Terminal Aerodrome Forecast
Issued by NWS

Current Version | Previous Version | Graphics & Text | Print | Product List | Glossary On
Versions: 1 2 3 4 5 6 7 8 9 10 11 12 13 14 15 16 17 18 19 20 21 22 23 24 25 26
430
FTUS41 KILN 250540
TAFLUK
TAF
KLUK 250540Z 2506/2606 21003KT P6SM SCT100 BKN250
     FM250800 VRB03KT 4SM BR SCT100 BKN250
     FM251300 23006KT P6SM BKN100 OVC250
     FM251800 24007KT P6SM VCTS SCT050CB
     FM252100 29007KT P6SM VCTS SCT040CB SCT100
     FM260100 VRB03KT P6SM SCT250=

USA.gov is the U.S. government's official web portal to all federal, state and local government web resources and services.